sensor_id;sensor_type;location;lat;lon;timestamp;temperature;humidity
51035;DHT22;37062;52.546;13.230;2024-03-17T00:01:19;6.70;99.90
51035;DHT22;37062;52.546;13.230;2024-03-17T00:03:47;6.70;99.90
51035;DHT22;37062;52.546;13.230;2024-03-17T00:06:14;6.70;99.90
51035;DHT22;37062;52.546;13.230;2024-03-17T00:08:41;6.60;99.90
51035;DHT22;37062;52.546;13.230;2024-03-17T00:11:08;6.60;99.90
51035;DHT22;37062;52.546;13.230;2024-03-17T00:13:34;6.60;99.90
51035;DHT22;37062;52.546;13.230;2024-03-17T00:16:02;6.60;99.90
51035;DHT22;37062;52.546;13.230;2024-03-17T00:18:29;6.60;99.90
51035;DHT22;37062;52.546;13.230;2024-03-17T00:20:58;6.60;99.90
51035;DHT22;37062;52.546;13.230;2024-03-17T00:23:25;6.60;99.90
51035;DHT22;37062;52.546;13.230;2024-03-17T00:25:55;6.70;99.90
51035;DHT22;37062;52.546;13.230;2024-03-17T00:28:21;6.60;99.90
51035;DHT22;37062;52.546;13.230;2024-03-17T00:30:49;6.60;99.90
51035;DHT22;37062;52.546;13.230;2024-03-17T00:33:15;6.60;99.90
51035;DHT22;37062;52.546;13.230;2024-03-17T00:35:42;6.50;99.90
51035;DHT22;37062;52.546;13.230;2024-03-17T00:38:10;6.50;99.90
51035;DHT22;37062;52.546;13.230;2024-03-17T00:40:38;6.50;99.90
51035;DHT22;37062;52.546;13.230;2024-03-17T00:43:06;6.60;99.90
51035;DHT22;37062;52.546;13.230;2024-03-17T00:45:34;6.40;99.90
51035;DHT22;37062;52.546;13.230;2024-03-17T00:48:00;6.40;99.90
51035;DHT22;37062;52.546;13.230;2024-03-17T00:50:27;6.40;99.90
51035;DHT22;37062;52.546;13.230;2024-03-17T00:52:53;6.40;99.90
51035;DHT22;37062;52.546;13.230;2024-03-17T00:55:22;6.20;99.90
51035;DHT22;37062;52.546;13.230;2024-03-17T00:57:48;6.30;99.90
51035;DHT22;37062;52.546;13.230;2024-03-17T01:00:16;6.30;99.90
51035;DHT22;37062;52.546;13.230;2024-03-17T01:02:43;6.20;99.90
51035;DHT22;37062;52.546;13.230;2024-03-17T01:05:11;6.20;99.90
51035;DHT22;37062;52.546;13.230;2024-03-17T01:07:38;6.20;99.90
51035;DHT22;37062;52.546;13.230;2024-03-17T01:10:06;6.20;99.90
51035;DHT22;37062;52.546;13.230;2024-03-17T01:12:36;6.20;99.90
51035;DHT22;37062;52.546;13.230;2024-03-17T01:15:04;6.20;99.90
51035;DHT22;37062;52.546;13.230;2024-03-17T01:17:31;6.20;99.90
51035;DHT22;37062;52.546;13.230;2024-03-17T01:19:58;6.20;99.90
51035;DHT22;37062;52.546;13.230;2024-03-17T01:22:24;6.20;99.90
51035;DHT22;37062;52.546;13.230;2024-03-17T01:24:51;6.10;99.90
51035;DHT22;37062;52.546;13.230;2024-03-17T01:27:18;6.10;99.90
51035;DHT22;37062;52.546;13.230;2024-03-17T01:29:47;6.10;99.90
51035;DHT22;37062;52.546;13.230;2024-03-17T01:32:14;6.10;99.90
51035;DHT22;37062;52.546;13.230;2024-03-17T01:34:41;6.10;99.90
51035;DHT22;37062;52.546;13.230;2024-03-17T01:37:08;6.10;99.90
51035;DHT22;37062;52.546;13.230;2024-03-17T01:39:35;6.10;99.90
51035;DHT22;37062;52.546;13.230;2024-03-17T01:42:01;6.10;99.90
51035;DHT22;37062;52.546;13.230;2024-03-17T01:44:29;6.10;99.90
51035;DHT22;37062;52.546;13.230;2024-03-17T01:46:58;6.10;99.90
51035;DHT22;37062;52.546;13.230;2024-03-17T01:49:26;6.10;99.90
51035;DHT22;37062;52.546;13.230;2024-03-17T01:51:53;6.10;99.90
51035;DHT22;37062;52.546;13.230;2024-03-17T01:54:21;6.00;99.90
51035;DHT22;37062;52.546;13.230;2024-03-17T01:56:47;6.00;99.90
51035;DHT22;37062;52.546;13.230;2024-03-17T01:59:14;6.00;99.90
51035;DHT22;37062;52.546;13.230;2024-03-17T02:01:41;6.00;99.90
51035;DHT22;37062;52.546;13.230;2024-03-17T02:04:10;6.00;99.90
51035;DHT22;37062;52.546;13.230;2024-03-17T02:06:37;5.90;99.90
51035;DHT22;37062;52.546;13.230;2024-03-17T02:09:07;5.90;99.90
51035;DHT22;37062;52.546;13.230;2024-03-17T02:11:35;5.90;99.90
51035;DHT22;37062;52.546;13.230;2024-03-17T02:14:02;5.90;99.90
51035;DHT22;37062;52.546;13.230;2024-03-17T02:16:29;5.90;99.90
51035;DHT22;37062;52.546;13.230;2024-03-17T02:18:56;5.90;99.90
51035;DHT22;37062;52.546;13.230;2024-03-17T02:21:24;5.80;99.90
51035;DHT22;37062;52.546;13.230;2024-03-17T02:23:54;5.90;99.90
51035;DHT22;37062;52.546;13.230;2024-03-17T02:26:21;5.80;99.90
51035;DHT22;37062;52.546;13.230;2024-03-17T02:28:49;5.80;99.90
51035;DHT22;37062;52.546;13.230;2024-03-17T02:31:16;5.80;99.90
51035;DHT22;37062;52.546;13.230;2024-03-17T02:33:45;5.70;99.90
51035;DHT22;37062;52.546;13.230;2024-03-17T02:36:12;5.70;99.90
51035;DHT22;37062;52.546;13.230;2024-03-17T02:38:39;5.70;99.90
51035;DHT22;37062;52.546;13.230;2024-03-17T02:41:26;5.70;99.90
51035;DHT22;37062;52.546;13.230;2024-03-17T02:43:54;5.60;99.90
51035;DHT22;37062;52.546;13.230;2024-03-17T02:46:21;5.60;99.90
51035;DHT22;37062;52.546;13.230;2024-03-17T02:48:51;5.60;99.90
51035;DHT22;37062;52.546;13.230;2024-03-17T02:51:21;5.60;99.90
51035;DHT22;37062;52.546;13.230;2024-03-17T02:53:49;5.50;99.90
51035;DHT22;37062;52.546;13.230;2024-03-17T02:56:17;5.50;99.90
51035;DHT22;37062;52.546;13.230;2024-03-17T02:58:47;5.50;99.90
51035;DHT22;37062;52.546;13.230;2024-03-17T03:01:15;5.50;99.90
51035;DHT22;37062;52.546;13.230;2024-03-17T03:03:42;5.50;99.90
51035;DHT22;37062;52.546;13.230;2024-03-17T03:06:09;5.40;99.90
51035;DHT22;37062;52.546;13.230;2024-03-17T03:08:38;5.50;99.90
51035;DHT22;37062;52.546;13.230;2024-03-17T03:11:07;5.40;99.90
51035;DHT22;37062;52.546;13.230;2024-03-17T03:13:37;5.40;99.90
51035;DHT22;37062;52.546;13.230;2024-03-17T03:16:08;5.40;99.90
51035;DHT22;37062;52.546;13.230;2024-03-17T03:18:36;5.30;99.90
51035;DHT22;37062;52.546;13.230;2024-03-17T03:21:03;5.30;99.90
51035;DHT22;37062;52.546;13.230;2024-03-17T03:23:31;5.20;99.90
51035;DHT22;37062;52.546;13.230;2024-03-17T03:26:00;5.20;99.90
51035;DHT22;37062;52.546;13.230;2024-03-17T03:28:30;5.20;99.90
51035;DHT22;37062;52.546;13.230;2024-03-17T03:30:59;5.30;99.90
51035;DHT22;37062;52.546;13.230;2024-03-17T03:33:29;5.30;99.90
51035;DHT22;37062;52.546;13.230;2024-03-17T03:35:56;5.20;99.90
51035;DHT22;37062;52.546;13.230;2024-03-17T03:38:24;5.20;99.90
51035;DHT22;37062;52.546;13.230;2024-03-17T03:40:51;5.30;99.90
51035;DHT22;37062;52.546;13.230;2024-03-17T03:43:19;5.20;99.90
51035;DHT22;37062;52.546;13.230;2024-03-17T03:45:46;5.20;99.90
51035;DHT22;37062;52.546;13.230;2024-03-17T03:48:14;5.20;99.90
51035;DHT22;37062;52.546;13.230;2024-03-17T03:50:43;5.20;99.90
51035;DHT22;37062;52.546;13.230;2024-03-17T03:53:10;5.10;99.90
51035;DHT22;37062;52.546;13.230;2024-03-17T03:55:38;5.10;99.90
51035;DHT22;37062;52.546;13.230;2024-03-17T03:58:05;5.10;99.90
51035;DHT22;37062;52.546;13.230;2024-03-17T04:00:32;5.10;99.90
51035;DHT22;37062;52.546;13.230;2024-03-17T04:03:00;5.10;99.90
51035;DHT22;37062;52.546;13.230;2024-03-17T04:05:28;5.10;99.90
51035;DHT22;37062;52.546;13.230;2024-03-17T04:07:57;5.10;99.90
51035;DHT22;37062;52.546;13.230;2024-03-17T04:10:25;5.10;99.90
51035;DHT22;37062;52.546;13.230;2024-03-17T04:12:52;5.20;99.90
51035;DHT22;37062;52.546;13.230;2024-03-17T04:15:20;5.20;99.90
51035;DHT22;37062;52.546;13.230;2024-03-17T04:17:47;5.30;99.90
51035;DHT22;37062;52.546;13.230;2024-03-17T04:20:15;5.30;99.90
51035;DHT22;37062;52.546;13.230;2024-03-17T04:22:42;5.20;99.90
51035;DHT22;37062;52.546;13.230;2024-03-17T04:25:12;5.20;99.90
51035;DHT22;37062;52.546;13.230;2024-03-17T04:27:40;5.20;99.90
51035;DHT22;37062;52.546;13.230;2024-03-17T04:30:08;5.10;99.90
51035;DHT22;37062;52.546;13.230;2024-03-17T04:32:37;5.10;99.90
51035;DHT22;37062;52.546;13.230;2024-03-17T04:35:05;5.10;99.90
51035;DHT22;37062;52.546;13.230;2024-03-17T04:37:33;5.00;99.90
51035;DHT22;37062;52.546;13.230;2024-03-17T04:40:06;5.00;99.90
51035;DHT22;37062;52.546;13.230;2024-03-17T04:42:36;5.00;99.90
51035;DHT22;37062;52.546;13.230;2024-03-17T04:45:07;5.00;99.90
51035;DHT22;37062;52.546;13.230;2024-03-17T04:47:36;5.00;99.90
51035;DHT22;37062;52.546;13.230;2024-03-17T04:50:04;4.90;99.90
51035;DHT22;37062;52.546;13.230;2024-03-17T04:52:32;4.90;99.90
51035;DHT22;37062;52.546;13.230;2024-03-17T04:54:59;4.90;99.90
51035;DHT22;37062;52.546;13.230;2024-03-17T04:57:27;4.90;99.90
51035;DHT22;37062;52.546;13.230;2024-03-17T04:59:55;4.80;99.90
51035;DHT22;37062;52.546;13.230;2024-03-17T05:02:23;4.80;99.90
51035;DHT22;37062;52.546;13.230;2024-03-17T05:04:50;4.80;99.90
51035;DHT22;37062;52.546;13.230;2024-03-17T05:07:19;4.70;99.90
51035;DHT22;37062;52.546;13.230;2024-03-17T05:09:46;4.70;99.90
51035;DHT22;37062;52.546;13.230;2024-03-17T05:12:13;4.70;99.90
51035;DHT22;37062;52.546;13.230;2024-03-17T05:14:41;4.70;99.90
51035;DHT22;37062;52.546;13.230;2024-03-17T05:17:09;4.70;99.90
51035;DHT22;37062;52.546;13.230;2024-03-17T05:19:37;4.60;99.90
51035;DHT22;37062;52.546;13.230;2024-03-17T05:22:04;4.60;99.90
51035;DHT22;37062;52.546;13.230;2024-03-17T05:24:31;4.70;99.90
51035;DHT22;37062;52.546;13.230;2024-03-17T05:26:59;4.70;99.90
51035;DHT22;37062;52.546;13.230;2024-03-17T05:29:26;4.80;99.90
51035;DHT22;37062;52.546;13.230;2024-03-17T05:31:53;4.80;99.90
51035;DHT22;37062;52.546;13.230;2024-03-17T05:34:22;4.80;99.90
51035;DHT22;37062;52.546;13.230;2024-03-17T05:36:50;4.80;99.90
51035;DHT22;37062;52.546;13.230;2024-03-17T05:39:17;4.90;99.90
51035;DHT22;37062;52.546;13.230;2024-03-17T05:41:46;4.90;99.90
51035;DHT22;37062;52.546;13.230;2024-03-17T05:44:14;5.00;99.90
51035;DHT22;37062;52.546;13.230;2024-03-17T05:46:41;4.90;99.90
51035;DHT22;37062;52.546;13.230;2024-03-17T05:49:09;5.00;99.90
51035;DHT22;37062;52.546;13.230;2024-03-17T05:51:38;5.00;99.90
51035;DHT22;37062;52.546;13.230;2024-03-17T05:54:06;5.10;99.90
51035;DHT22;37062;52.546;13.230;2024-03-17T05:56:33;5.50;99.90
51035;DHT22;37062;52.546;13.230;2024-03-17T05:59:01;6.20;99.90
51035;DHT22;37062;52.546;13.230;2024-03-17T06:01:29;6.90;99.90
51035;DHT22;37062;52.546;13.230;2024-03-17T06:03:57;7.50;99.90
51035;DHT22;37062;52.546;13.230;2024-03-17T06:06:25;7.80;99.90
51035;DHT22;37062;52.546;13.230;2024-03-17T06:08:54;7.80;99.90
51035;DHT22;37062;52.546;13.230;2024-03-17T06:11:21;7.90;99.90
51035;DHT22;37062;52.546;13.230;2024-03-17T06:13:48;8.00;99.90
51035;DHT22;37062;52.546;13.230;2024-03-17T06:16:16;8.30;99.90
51035;DHT22;37062;52.546;13.230;2024-03-17T06:18:46;8.60;99.90
51035;DHT22;37062;52.546;13.230;2024-03-17T06:21:16;8.70;99.90
51035;DHT22;37062;52.546;13.230;2024-03-17T06:23:43;8.80;99.90
51035;DHT22;37062;52.546;13.230;2024-03-17T06:26:13;9.10;99.90
51035;DHT22;37062;52.546;13.230;2024-03-17T06:28:40;9.20;99.90
51035;DHT22;37062;52.546;13.230;2024-03-17T06:31:09;9.50;99.90
51035;DHT22;37062;52.546;13.230;2024-03-17T06:33:36;9.90;99.90
51035;DHT22;37062;52.546;13.230;2024-03-17T06:36:04;10.30;99.90
51035;DHT22;37062;52.546;13.230;2024-03-17T06:38:32;10.80;99.90
51035;DHT22;37062;52.546;13.230;2024-03-17T06:41:00;11.00;99.90
51035;DHT22;37062;52.546;13.230;2024-03-17T06:43:28;11.30;99.90
51035;DHT22;37062;52.546;13.230;2024-03-17T06:45:56;11.80;99.90
51035;DHT22;37062;52.546;13.230;2024-03-17T06:48:24;12.10;99.90
51035;DHT22;37062;52.546;13.230;2024-03-17T06:50:52;11.80;99.90
51035;DHT22;37062;52.546;13.230;2024-03-17T06:53:20;11.70;99.90
51035;DHT22;37062;52.546;13.230;2024-03-17T06:55:54;11.70;99.90
51035;DHT22;37062;52.546;13.230;2024-03-17T06:58:22;11.80;99.90
51035;DHT22;37062;52.546;13.230;2024-03-17T07:00:55;11.70;99.90
51035;DHT22;37062;52.546;13.230;2024-03-17T07:03:24;11.60;99.90
51035;DHT22;37062;52.546;13.230;2024-03-17T07:05:53;11.70;99.90
51035;DHT22;37062;52.546;13.230;2024-03-17T07:08:21;11.60;99.90
51035;DHT22;37062;52.546;13.230;2024-03-17T07:10:56;11.20;99.90
51035;DHT22;37062;52.546;13.230;2024-03-17T07:13:23;10.40;99.90
51035;DHT22;37062;52.546;13.230;2024-03-17T07:15:50;10.00;99.90
51035;DHT22;37062;52.546;13.230;2024-03-17T07:18:19;9.60;99.90
51035;DHT22;37062;52.546;13.230;2024-03-17T07:20:47;9.50;99.90
51035;DHT22;37062;52.546;13.230;2024-03-17T07:23:14;9.20;99.90
51035;DHT22;37062;52.546;13.230;2024-03-17T07:25:42;8.90;99.90
51035;DHT22;37062;52.546;13.230;2024-03-17T07:28:18;8.90;99.90
51035;DHT22;37062;52.546;13.230;2024-03-17T07:30:47;9.00;99.90
51035;DHT22;37062;52.546;13.230;2024-03-17T07:33:14;9.20;99.90
51035;DHT22;37062;52.546;13.230;2024-03-17T07:35:48;9.30;99.90
51035;DHT22;37062;52.546;13.230;2024-03-17T07:38:16;9.30;99.90
51035;DHT22;37062;52.546;13.230;2024-03-17T07:40:43;9.40;99.90
51035;DHT22;37062;52.546;13.230;2024-03-17T07:43:11;9.50;99.90
51035;DHT22;37062;52.546;13.230;2024-03-17T07:45:39;9.60;99.90
51035;DHT22;37062;52.546;13.230;2024-03-17T07:48:08;10.00;99.90
51035;DHT22;37062;52.546;13.230;2024-03-17T07:50:36;10.40;99.90
51035;DHT22;37062;52.546;13.230;2024-03-17T07:53:05;11.10;99.90
51035;DHT22;37062;52.546;13.230;2024-03-17T07:55:32;12.10;99.90
51035;DHT22;37062;52.546;13.230;2024-03-17T07:58:00;13.10;99.90
51035;DHT22;37062;52.546;13.230;2024-03-17T08:00:27;13.80;99.90
51035;DHT22;37062;52.546;13.230;2024-03-17T08:02:54;14.20;99.90
51035;DHT22;37062;52.546;13.230;2024-03-17T08:05:22;14.10;99.90
51035;DHT22;37062;52.546;13.230;2024-03-17T08:07:49;14.00;99.90
51035;DHT22;37062;52.546;13.230;2024-03-17T08:10:18;14.30;99.90
51035;DHT22;37062;52.546;13.230;2024-03-17T08:12:45;14.90;99.90
51035;DHT22;37062;52.546;13.230;2024-03-17T08:15:12;15.60;99.90
51035;DHT22;37062;52.546;13.230;2024-03-17T08:17:40;16.20;99.90
51035;DHT22;37062;52.546;13.230;2024-03-17T08:20:08;16.60;99.90
51035;DHT22;37062;52.546;13.230;2024-03-17T08:22:35;17.20;99.90
51035;DHT22;37062;52.546;13.230;2024-03-17T08:25:03;17.50;99.90
51035;DHT22;37062;52.546;13.230;2024-03-17T08:27:32;17.40;99.90
51035;DHT22;37062;52.546;13.230;2024-03-17T08:29:59;17.00;99.90
51035;DHT22;37062;52.546;13.230;2024-03-17T08:32:27;16.30;99.90
51035;DHT22;37062;52.546;13.230;2024-03-17T08:34:54;15.80;99.90
51035;DHT22;37062;52.546;13.230;2024-03-17T08:37:21;16.20;99.90
51035;DHT22;37062;52.546;13.230;2024-03-17T08:39:51;16.70;99.90
51035;DHT22;37062;52.546;13.230;2024-03-17T08:42:19;17.00;99.90
51035;DHT22;37062;52.546;13.230;2024-03-17T08:44:48;16.80;99.90
51035;DHT22;37062;52.546;13.230;2024-03-17T08:47:15;16.20;99.90
51035;DHT22;37062;52.546;13.230;2024-03-17T08:49:43;15.70;99.90
51035;DHT22;37062;52.546;13.230;2024-03-17T08:52:10;15.60;99.90
51035;DHT22;37062;52.546;13.230;2024-03-17T08:54:37;15.80;99.90
51035;DHT22;37062;52.546;13.230;2024-03-17T08:57:04;15.00;99.90
51035;DHT22;37062;52.546;13.230;2024-03-17T08:59:32;14.30;99.90
51035;DHT22;37062;52.546;13.230;2024-03-17T09:02:01;14.10;99.90
51035;DHT22;37062;52.546;13.230;2024-03-17T09:04:29;13.90;99.90
51035;DHT22;37062;52.546;13.230;2024-03-17T09:06:56;13.80;99.90
51035;DHT22;37062;52.546;13.230;2024-03-17T09:09:24;13.50;99.90
51035;DHT22;37062;52.546;13.230;2024-03-17T09:11:52;13.70;99.90
51035;DHT22;37062;52.546;13.230;2024-03-17T09:14:19;13.70;99.90
51035;DHT22;37062;52.546;13.230;2024-03-17T09:16:47;13.80;99.90
51035;DHT22;37062;52.546;13.230;2024-03-17T09:19:16;13.80;99.90
51035;DHT22;37062;52.546;13.230;2024-03-17T09:21:44;13.70;99.90
51035;DHT22;37062;52.546;13.230;2024-03-17T09:24:12;13.50;99.90
51035;DHT22;37062;52.546;13.230;2024-03-17T09:26:39;12.80;99.90
51035;DHT22;37062;52.546;13.230;2024-03-17T09:29:07;12.20;99.90
51035;DHT22;37062;52.546;13.230;2024-03-17T09:31:34;12.10;99.90
51035;DHT22;37062;52.546;13.230;2024-03-17T09:34:01;12.30;99.90
51035;DHT22;37062;52.546;13.230;2024-03-17T09:36:30;12.50;99.90
51035;DHT22;37062;52.546;13.230;2024-03-17T09:38:58;12.70;99.90
51035;DHT22;37062;52.546;13.230;2024-03-17T09:41:26;12.70;99.90
51035;DHT22;37062;52.546;13.230;2024-03-17T09:43:56;12.50;99.90
51035;DHT22;37062;52.546;13.230;2024-03-17T09:46:24;12.40;99.90
51035;DHT22;37062;52.546;13.230;2024-03-17T09:48:53;12.50;99.90
51035;DHT22;37062;52.546;13.230;2024-03-17T09:51:21;12.50;99.90
51035;DHT22;37062;52.546;13.230;2024-03-17T09:53:51;12.70;99.90
51035;DHT22;37062;52.546;13.230;2024-03-17T09:56:20;12.80;99.90
51035;DHT22;37062;52.546;13.230;2024-03-17T09:58:48;12.70;99.90
51035;DHT22;37062;52.546;13.230;2024-03-17T10:01:16;12.40;99.90
51035;DHT22;37062;52.546;13.230;2024-03-17T10:03:45;12.40;99.90
51035;DHT22;37062;52.546;13.230;2024-03-17T10:06:18;12.40;99.90
51035;DHT22;37062;52.546;13.230;2024-03-17T10:08:47;12.60;99.90
51035;DHT22;37062;52.546;13.230;2024-03-17T10:11:17;12.60;99.90
51035;DHT22;37062;52.546;13.230;2024-03-17T10:13:46;12.40;99.90
51035;DHT22;37062;52.546;13.230;2024-03-17T10:16:21;12.40;99.90
51035;DHT22;37062;52.546;13.230;2024-03-17T10:18:50;12.40;99.90
51035;DHT22;37062;52.546;13.230;2024-03-17T10:21:26;12.10;99.90
51035;DHT22;37062;52.546;13.230;2024-03-17T10:24:05;12.10;99.90
51035;DHT22;37062;52.546;13.230;2024-03-17T10:26:41;12.20;99.90
51035;DHT22;37062;52.546;13.230;2024-03-17T10:29:31;12.20;99.90
51035;DHT22;37062;52.546;13.230;2024-03-17T10:32:03;12.00;99.90
51035;DHT22;37062;52.546;13.230;2024-03-17T10:34:31;11.90;99.90
51035;DHT22;37062;52.546;13.230;2024-03-17T10:37:08;11.90;99.90
51035;DHT22;37062;52.546;13.230;2024-03-17T10:39:37;12.00;99.90
51035;DHT22;37062;52.546;13.230;2024-03-17T10:42:09;12.30;99.90
51035;DHT22;37062;52.546;13.230;2024-03-17T10:44:37;12.10;99.90
51035;DHT22;37062;52.546;13.230;2024-03-17T10:47:06;11.90;99.90
51035;DHT22;37062;52.546;13.230;2024-03-17T10:49:37;11.80;99.90
51035;DHT22;37062;52.546;13.230;2024-03-17T10:52:06;11.80;99.90
51035;DHT22;37062;52.546;13.230;2024-03-17T10:54:34;11.60;99.90
51035;DHT22;37062;52.546;13.230;2024-03-17T10:57:12;11.60;99.90
51035;DHT22;37062;52.546;13.230;2024-03-17T10:59:47;11.70;99.90
51035;DHT22;37062;52.546;13.230;2024-03-17T11:02:21;11.90;99.90
51035;DHT22;37062;52.546;13.230;2024-03-17T11:04:53;12.20;99.90
51035;DHT22;37062;52.546;13.230;2024-03-17T11:07:21;12.20;99.90
51035;DHT22;37062;52.546;13.230;2024-03-17T11:09:51;12.20;99.90
51035;DHT22;37062;52.546;13.230;2024-03-17T11:12:42;12.10;99.90
51035;DHT22;37062;52.546;13.230;2024-03-17T11:15:34;12.00;99.90
51035;DHT22;37062;52.546;13.230;2024-03-17T11:18:33;12.00;99.90
51035;DHT22;37062;52.546;13.230;2024-03-17T11:21:02;12.10;99.90
51035;DHT22;37062;52.546;13.230;2024-03-17T11:23:35;12.00;99.90
51035;DHT22;37062;52.546;13.230;2024-03-17T11:26:05;11.90;99.90
51035;DHT22;37062;52.546;13.230;2024-03-17T11:28:46;11.90;99.90
51035;DHT22;37062;52.546;13.230;2024-03-17T11:31:37;11.60;99.90
51035;DHT22;37062;52.546;13.230;2024-03-17T11:36:51;11.60;99.90
51035;DHT22;37062;52.546;13.230;2024-03-17T11:39:17;11.70;99.90
51035;DHT22;37062;52.546;13.230;2024-03-17T11:41:48;11.80;99.90
51035;DHT22;37062;52.546;13.230;2024-03-17T11:44:24;12.00;99.90
51035;DHT22;37062;52.546;13.230;2024-03-17T11:46:53;12.20;99.90
51035;DHT22;37062;52.546;13.230;2024-03-17T11:49:24;12.40;99.90
51035;DHT22;37062;52.546;13.230;2024-03-17T11:51:51;12.40;99.90
51035;DHT22;37062;52.546;13.230;2024-03-17T11:54:21;12.10;99.90
51035;DHT22;37062;52.546;13.230;2024-03-17T11:56:49;12.00;99.90
51035;DHT22;37062;52.546;13.230;2024-03-17T11:59:19;11.70;99.90
51035;DHT22;37062;52.546;13.230;2024-03-17T12:01:47;11.50;99.90
51035;DHT22;37062;52.546;13.230;2024-03-17T12:04:14;11.30;99.90
51035;DHT22;37062;52.546;13.230;2024-03-17T12:06:44;11.20;99.90
51035;DHT22;37062;52.546;13.230;2024-03-17T12:09:18;11.20;99.90
51035;DHT22;37062;52.546;13.230;2024-03-17T12:11:47;11.00;99.90
51035;DHT22;37062;52.546;13.230;2024-03-17T12:14:15;11.10;99.90
51035;DHT22;37062;52.546;13.230;2024-03-17T12:16:54;11.10;99.90
51035;DHT22;37062;52.546;13.230;2024-03-17T12:19:21;11.00;99.90
51035;DHT22;37062;52.546;13.230;2024-03-17T12:21:49;11.10;99.90
51035;DHT22;37062;52.546;13.230;2024-03-17T12:24:18;11.20;99.90
51035;DHT22;37062;52.546;13.230;2024-03-17T12:26:46;11.20;99.90
51035;DHT22;37062;52.546;13.230;2024-03-17T12:29:24;11.20;99.90
51035;DHT22;37062;52.546;13.230;2024-03-17T12:31:55;11.10;99.90
51035;DHT22;37062;52.546;13.230;2024-03-17T12:34:24;11.00;99.90
51035;DHT22;37062;52.546;13.230;2024-03-17T12:36:53;11.00;99.90
51035;DHT22;37062;52.546;13.230;2024-03-17T12:39:20;10.90;99.90
51035;DHT22;37062;52.546;13.230;2024-03-17T12:42:02;11.00;99.90
51035;DHT22;37062;52.546;13.230;2024-03-17T12:44:29;11.10;99.90
51035;DHT22;37062;52.546;13.230;2024-03-17T12:46:59;11.20;99.90
51035;DHT22;37062;52.546;13.230;2024-03-17T12:49:27;11.40;99.90
51035;DHT22;37062;52.546;13.230;2024-03-17T12:51:54;11.60;99.90
51035;DHT22;37062;52.546;13.230;2024-03-17T12:54:25;11.90;99.90
51035;DHT22;37062;52.546;13.230;2024-03-17T12:57:03;11.90;99.90
51035;DHT22;37062;52.546;13.230;2024-03-17T12:59:48;12.00;99.90
51035;DHT22;37062;52.546;13.230;2024-03-17T13:02:41;11.80;99.90
51035;DHT22;37062;52.546;13.230;2024-03-17T13:05:16;11.70;99.90
51035;DHT22;37062;52.546;13.230;2024-03-17T13:07:44;11.40;99.90
51035;DHT22;37062;52.546;13.230;2024-03-17T13:10:13;11.30;99.90
51035;DHT22;37062;52.546;13.230;2024-03-17T13:12:42;11.40;99.90
51035;DHT22;37062;52.546;13.230;2024-03-17T13:15:11;11.50;99.90
51035;DHT22;37062;52.546;13.230;2024-03-17T13:17:41;11.60;99.90
51035;DHT22;37062;52.546;13.230;2024-03-17T13:20:13;11.80;99.90
51035;DHT22;37062;52.546;13.230;2024-03-17T13:22:41;12.00;99.90
51035;DHT22;37062;52.546;13.230;2024-03-17T13:25:14;12.30;99.90
51035;DHT22;37062;52.546;13.230;2024-03-17T13:27:42;12.50;99.90
51035;DHT22;37062;52.546;13.230;2024-03-17T13:30:11;12.70;99.90
51035;DHT22;37062;52.546;13.230;2024-03-17T13:32:41;12.80;99.90
51035;DHT22;37062;52.546;13.230;2024-03-17T13:35:17;12.90;99.90
51035;DHT22;37062;52.546;13.230;2024-03-17T13:37:45;12.90;99.90
51035;DHT22;37062;52.546;13.230;2024-03-17T13:40:14;12.90;99.90
51035;DHT22;37062;52.546;13.230;2024-03-17T13:42:42;12.80;99.90
51035;DHT22;37062;52.546;13.230;2024-03-17T13:45:12;12.80;99.90
51035;DHT22;37062;52.546;13.230;2024-03-17T13:47:41;12.70;99.90
51035;DHT22;37062;52.546;13.230;2024-03-17T13:50:09;12.60;99.90
51035;DHT22;37062;52.546;13.230;2024-03-17T13:52:38;12.60;99.90
51035;DHT22;37062;52.546;13.230;2024-03-17T13:55:06;12.60;99.90
51035;DHT22;37062;52.546;13.230;2024-03-17T13:57:39;12.40;99.90
51035;DHT22;37062;52.546;13.230;2024-03-17T14:00:08;12.20;99.90
51035;DHT22;37062;52.546;13.230;2024-03-17T14:02:38;11.80;99.90
51035;DHT22;37062;52.546;13.230;2024-03-17T14:05:08;11.50;99.90
51035;DHT22;37062;52.546;13.230;2024-03-17T14:07:38;11.40;99.90
51035;DHT22;37062;52.546;13.230;2024-03-17T14:10:07;11.50;99.90
51035;DHT22;37062;52.546;13.230;2024-03-17T14:12:35;11.40;99.90
51035;DHT22;37062;52.546;13.230;2024-03-17T14:15:04;11.40;99.90
51035;DHT22;37062;52.546;13.230;2024-03-17T14:17:32;11.50;99.90
51035;DHT22;37062;52.546;13.230;2024-03-17T14:19:59;11.50;99.90
51035;DHT22;37062;52.546;13.230;2024-03-17T14:22:29;11.70;99.90
51035;DHT22;37062;52.546;13.230;2024-03-17T14:24:56;11.80;99.90
51035;DHT22;37062;52.546;13.230;2024-03-17T14:27:23;11.70;99.90
51035;DHT22;37062;52.546;13.230;2024-03-17T14:29:53;11.60;99.90
51035;DHT22;37062;52.546;13.230;2024-03-17T14:32:20;11.50;99.90
51035;DHT22;37062;52.546;13.230;2024-03-17T14:34:48;11.60;99.90
51035;DHT22;37062;52.546;13.230;2024-03-17T14:37:15;11.60;99.90
51035;DHT22;37062;52.546;13.230;2024-03-17T14:39:44;11.70;99.90
51035;DHT22;37062;52.546;13.230;2024-03-17T14:42:11;11.70;99.90
51035;DHT22;37062;52.546;13.230;2024-03-17T14:44:38;11.80;99.90
51035;DHT22;37062;52.546;13.230;2024-03-17T14:47:06;11.80;99.90
51035;DHT22;37062;52.546;13.230;2024-03-17T14:49:34;11.90;99.90
51035;DHT22;37062;52.546;13.230;2024-03-17T14:52:01;11.70;99.90
51035;DHT22;37062;52.546;13.230;2024-03-17T14:54:31;11.50;99.90
51035;DHT22;37062;52.546;13.230;2024-03-17T14:56:59;11.40;99.90
51035;DHT22;37062;52.546;13.230;2024-03-17T14:59:27;11.40;99.90
51035;DHT22;37062;52.546;13.230;2024-03-17T15:01:55;11.50;99.90
51035;DHT22;37062;52.546;13.230;2024-03-17T15:04:24;11.50;99.90
51035;DHT22;37062;52.546;13.230;2024-03-17T15:06:53;11.40;99.90
51035;DHT22;37062;52.546;13.230;2024-03-17T15:09:21;11.40;99.90
51035;DHT22;37062;52.546;13.230;2024-03-17T15:11:48;11.50;99.90
51035;DHT22;37062;52.546;13.230;2024-03-17T15:14:17;11.50;99.90
51035;DHT22;37062;52.546;13.230;2024-03-17T15:16:45;11.60;99.90
51035;DHT22;37062;52.546;13.230;2024-03-17T15:19:13;11.50;99.90
51035;DHT22;37062;52.546;13.230;2024-03-17T15:21:40;11.40;99.90
51035;DHT22;37062;52.546;13.230;2024-03-17T15:24:07;11.30;99.90
51035;DHT22;37062;52.546;13.230;2024-03-17T15:26:34;11.20;99.90
51035;DHT22;37062;52.546;13.230;2024-03-17T15:29:02;11.10;99.90
51035;DHT22;37062;52.546;13.230;2024-03-17T15:31:31;11.10;99.90
51035;DHT22;37062;52.546;13.230;2024-03-17T15:33:58;11.20;99.90
51035;DHT22;37062;52.546;13.230;2024-03-17T15:36:26;11.20;99.90